Springfield, Michigan
Current Conditions -  °F | °C
As of 12:03 PM on Saturday 25 Oct 2014 (Local Time) from KBTL Reporting Station
Overcast Overcast  
Wind Chill: 59°   Ceiling: 1600
Heat Index: 59°   Visibility: 8mi
Dew Point: 52°   Wind: 14mph
Humidity: 78%   Direction: 280°W
Pressure: 29.88"   Gusts: 20mph
Location:  42.2966°N, 85.2371°W
Report Text: KBTL 251603Z 28012G17KT 8SM BKN016 OVC023 15/11 A2988 RMK AO2 T01500111
Loading
Personal Weather Stations






























Interactive Weather Map New forecast layout! Learn more

10-Day Weather Forecast

Advertisements
Track Severe Weather on mobile